Time;durP1;ratioP1;P1;durP2;ratioP2;P2;SDS_P1;SDS_P2;PMS_P1;PMS_P2;Temp;Humidity;BMP_temperature;BMP_pressure;BME280_temperature;BME280_humidity;BME280_pressure;Samples;Min_cycle;Max_cycle;Signal;HPM_P1;HPM_P2
2023/02/09 00:01:59;;;;;;;0.40;0.40;;;;;;;1.17;82.22;102604.03;4933067;29;20462;-54
2023/02/09 00:04:37;;;;;;;0.20;0.20;;;;;;;1.38;80.44;102598.78;4928611;29;20501;-57
2023/02/09 00:07:26;;;;;;;0.57;0.57;;;;;;;0.85;81.98;102598.53;4931035;29;20465;-59
2023/02/09 00:09:52;;;;;;;0.77;0.77;;;;;;;0.63;83.25;102592.31;4927196;29;20036;-56
2023/02/09 00:15:03;;;;;;;0.50;0.50;;;;;;;0.74;83.15;102584.31;4932676;29;20047;-56
2023/02/09 00:17:32;;;;;;;0.73;0.73;;;;;;;0.78;82.78;102576.66;4929195;29;20136;-54
2023/02/09 00:19:57;;;;;;;0.30;0.30;;;;;;;0.75;83.68;102574.50;4932781;29;20039;-58
2023/02/09 00:22:23;;;;;;;3.13;1.30;;;;;;;0.73;84.18;102577.41;4932049;29;20042;-52
2023/02/09 00:24:49;;;;;;;0.63;0.63;;;;;;;1.00;83.02;102579.38;4932496;29;20032;-55
2023/02/09 00:27:14;;;;;;;0.82;0.82;;;;;;;0.94;83.03;102575.88;4928386;29;20023;-55
2023/02/09 00:29:40;;;;;;;0.35;0.35;;;;;;;0.75;83.61;102561.25;4947477;28;20494;-58
2023/02/09 00:32:06;;;;;;;0.20;0.20;;;;;;;0.81;83.75;102562.94;4938944;28;20100;-59
2023/02/09 00:34:31;;;;;;;0.30;0.30;;;;;;;0.92;83.33;102567.34;4930411;29;20774;-58
2023/02/09 00:36:57;;;;;;;0.38;0.38;;;;;;;0.72;83.62;102557.22;4929379;29;20082;-54
2023/02/09 00:39:22;;;;;;;0.60;0.60;;;;;;;0.65;84.03;102550.50;4946908;29;20082;-57
2023/02/09 00:42:06;;;;;;;0.60;0.60;;;;;;;0.67;84.60;102543.09;4947021;29;20119;-58
2023/02/09 00:44:37;;;;;;;0.40;0.40;;;;;;;0.60;84.48;102537.94;4942811;28;20039;-52
2023/02/09 00:47:04;;;;;;;0.77;0.77;;;;;;;0.96;83.89;102536.66;4932666;29;20027;-55
2023/02/09 00:49:30;;;;;;;0.45;0.45;;;;;;;0.96;83.60;102533.19;4932234;29;20063;-55
2023/02/09 00:51:56;;;;;;;0.80;0.80;;;;;;;0.87;83.73;102525.63;4931758;29;20036;-57
2023/02/09 00:54:22;;;;;;;0.45;0.45;;;;;;;0.93;83.23;102515.13;4927063;29;20035;-58
2023/02/09 00:56:48;;;;;;;0.30;0.30;;;;;;;0.96;83.69;102515.44;4929417;29;20403;-55
2023/02/09 00:59:14;;;;;;;0.50;0.50;;;;;;;0.58;83.55;102518.84;4932234;29;20561;-58
2023/02/09 01:01:40;;;;;;;0.35;0.35;;;;;;;0.73;84.29;102515.63;4930732;29;20066;-56
2023/02/09 01:04:07;;;;;;;0.88;0.88;;;;;;;0.81;83.45;102507.28;4932725;29;20495;-58
2023/02/09 01:06:32;;;;;;;0.50;0.50;;;;;;;0.88;83.50;102507.91;4913260;29;20032;-57
2023/02/09 01:08:58;;;;;;;0.20;0.20;;;;;;;1.04;83.38;102508.91;4934788;29;20388;-57
2023/02/09 01:11:26;;;;;;;3.10;0.85;;;;;;;0.93;82.63;102500.81;4936000;29;20047;-60
2023/02/09 01:13:55;;;;;;;0.40;0.40;;;;;;;0.73;84.13;102510.34;4932773;29;20406;-58
2023/02/09 01:16:20;;;;;;;0.65;0.65;;;;;;;0.94;83.47;102506.91;4939118;29;20039;-60
2023/02/09 01:18:46;;;;;;;0.35;0.35;;;;;;;0.91;82.26;102502.91;4909337;29;20407;-60
2023/02/09 01:21:14;;;;;;;0.40;0.40;;;;;;;1.09;82.65;102515.06;4938834;29;20103;-59
2023/02/09 01:23:40;;;;;;;0.70;0.70;;;;;;;1.01;81.97;102502.22;4937266;29;20032;-60
2023/02/09 01:26:08;;;;;;;0.30;0.30;;;;;;;1.06;82.27;102494.38;4936367;29;20091;-55
2023/02/09 01:28:34;;;;;;;0.40;0.40;;;;;;;0.60;83.11;102494.78;4935513;29;20118;-55
2023/02/09 01:31:03;;;;;;;0.45;0.45;;;;;;;0.63;83.71;102500.38;4932806;29;20051;-56
2023/02/09 01:33:29;;;;;;;1.52;1.05;;;;;;;0.70;83.74;102482.47;4932883;29;20028;-56
2023/02/09 01:36:02;;;;;;;0.30;0.30;;;;;;;0.50;84.69;102486.66;4934919;29;20059;-58
2023/02/09 01:38:28;;;;;;;0.73;0.73;;;;;;;0.61;84.29;102480.47;4928589;29;20043;-58
2023/02/09 01:40:54;;;;;;;0.63;0.63;;;;;;;0.59;83.86;102477.25;4935091;29;20051;-57
2023/02/09 01:43:19;;;;;;;0.93;0.88;;;;;;;0.69;83.81;102475.56;4935405;29;20043;-58
2023/02/09 01:45:53;;;;;;;0.60;0.60;;;;;;;0.55;84.49;102470.84;4933389;29;20031;-55
2023/02/09 01:48:22;;;;;;;0.40;0.40;;;;;;;0.48;83.75;102464.91;4934747;29;20035;-57
2023/02/09 01:50:53;;;;;;;0.80;0.80;;;;;;;0.68;83.78;102459.88;4940897;29;20431;-58
2023/02/09 01:53:20;;;;;;;1.20;1.10;;;;;;;0.51;83.76;102453.81;4935265;29;20036;-58
2023/02/09 01:55:54;;;;;;;0.40;0.40;;;;;;;0.67;83.49;102456.44;4934860;29;20050;-56
2023/02/09 01:58:23;;;;;;;0.80;0.80;;;;;;;0.46;84.19;102449.25;4935357;29;20031;-55
2023/02/09 02:00:49;;;;;;;0.50;0.50;;;;;;;0.86;83.49;102452.47;4948051;29;20898;-56
2023/02/09 02:03:24;;;;;;;0.55;0.55;;;;;;;0.92;83.24;102445.38;4918716;29;20038;-55
2023/02/09 02:05:54;;;;;;;0.40;0.40;;;;;;;0.98;82.14;102449.69;4931236;29;20561;-58
2023/02/09 02:08:35;;;;;;;4.68;1.05;;;;;;;0.86;82.45;102447.16;4933594;29;20059;-56
2023/02/09 02:11:01;;;;;;;0.40;0.40;;;;;;;0.38;84.18;102439.06;4932973;29;20032;-58
2023/02/09 02:13:27;;;;;;;0.77;0.77;;;;;;;0.63;83.92;102435.97;4918158;29;20086;-53
2023/02/09 02:16:48;;;;;;;0.43;0.43;;;;;;;0.38;84.50;102423.19;4933521;29;20505;-56
2023/02/09 02:19:53;;;;;;;0.35;0.35;;;;;;;0.28;85.83;102414.25;4888417;29;20043;-58
2023/02/09 02:22:34;;;;;;;0.50;0.50;;;;;;;0.51;83.63;102422.00;4947712;28;20031;-56
2023/02/09 02:25:21;;;;;;;0.52;0.52;;;;;;;0.48;83.94;102419.88;4935349;29;20115;-59
2023/02/09 02:27:55;;;;;;;2.38;2.10;;;;;;;0.58;83.81;102412.06;4933848;29;20050;-55
2023/02/09 02:30:49;;;;;;;0.90;0.90;;;;;;;0.57;83.85;102411.25;4934857;29;20044;-55
2023/02/09 02:33:38;;;;;;;0.40;0.40;;;;;;;0.28;85.19;102415.06;4935108;29;20046;-57
2023/02/09 02:36:10;;;;;;;0.57;0.57;;;;;;;0.34;85.14;102415.94;4923773;29;20040;-57
2023/02/09 02:38:49;;;;;;;0.47;0.47;;;;;;;0.44;84.49;102416.09;4934463;29;20168;-58
2023/02/09 02:44:28;;;;;;;0.40;0.40;;;;;;;0.64;83.54;102405.78;4947518;23;20039;-59
2023/02/09 02:46:58;;;;;;;0.30;0.30;;;;;;;0.81;82.47;102393.28;4940686;29;20023;-59
2023/02/09 02:49:38;;;;;;;1.95;0.85;;;;;;;0.82;82.23;102398.34;4933452;29;20043;-59
2023/02/09 02:52:07;;;;;;;0.40;0.40;;;;;;;0.30;83.12;102398.94;4951192;29;20039;-61
2023/02/09 02:54:40;;;;;;;0.65;0.65;;;;;;;0.51;82.49;102398.16;4941078;28;20027;-57
2023/02/09 02:57:13;;;;;;;0.30;0.30;;;;;;;0.64;82.21;102401.28;4950592;28;20027;-63
2023/02/09 02:59:49;;;;;;;0.30;0.30;;;;;;;0.79;81.60;102392.72;4945262;28;20091;-56
2023/02/09 03:02:22;;;;;;;0.30;0.30;;;;;;;0.74;81.71;102390.00;4938955;29;20427;-61
2023/02/09 03:04:52;;;;;;;0.60;0.60;;;;;;;0.82;81.35;102381.63;4936545;28;20046;-62
2023/02/09 03:07:18;;;;;;;0.77;0.77;;;;;;;0.75;81.12;102386.31;4912971;29;20063;-61
2023/02/09 03:09:52;;;;;;;0.32;0.32;;;;;;;0.49;82.48;102374.56;4946436;28;20039;-62
2023/02/09 03:12:25;;;;;;;0.30;0.30;;;;;;;0.51;82.22;102384.94;4944042;28;20498;-61
2023/02/09 03:15:38;;;;;;;0.38;0.38;;;;;;;0.80;81.26;102378.41;4943876;28;20042;-61
2023/02/09 03:18:13;;;;;;;0.57;0.57;;;;;;;0.72;80.52;102379.66;4909776;29;20060;-63
2023/02/09 03:20:57;;;;;;;0.40;0.40;;;;;;;0.72;80.86;102379.66;4937543;28;20044;-62
2023/02/09 03:23:46;;;;;;;0.50;0.50;;;;;;;0.74;81.40;102372.25;4927201;29;20122;-63
2023/02/09 03:26:18;;;;;;;2.30;0.70;;;;;;;0.87;80.18;102381.69;4962595;28;20054;-65
2023/02/09 03:28:47;;;;;;;0.50;0.50;;;;;;;0.90;79.71;102373.25;4946644;28;20035;-62
2023/02/09 03:31:14;;;;;;;0.50;0.50;;;;;;;0.66;80.17;102371.88;4938820;28;20039;-60
2023/02/09 03:33:40;;;;;;;0.68;0.68;;;;;;;0.67;81.19;102370.84;4950064;29;20467;-61
2023/02/09 03:36:12;;;;;;;0.60;0.60;;;;;;;0.49;81.31;102357.88;4950115;28;20379;-62
2023/02/09 03:38:38;;;;;;;1.13;1.08;;;;;;;0.68;81.04;102345.91;4943678;29;20044;-62
2023/02/09 03:41:03;;;;;;;0.32;0.32;;;;;;;0.57;81.10;102339.72;4953365;28;20046;-60
2023/02/09 03:46:13;;;;;;;0.82;0.82;;;;;;;0.55;81.26;102338.34;4950298;28;20031;-58
2023/02/09 03:48:38;;;;;;;0.30;0.30;;;;;;;0.64;80.67;102336.88;4945979;28;20225;-58
2023/02/09 03:51:05;;;;;;;0.73;0.73;;;;;;;0.38;81.40;102329.66;4946380;28;20042;-58
2023/02/09 03:53:34;;;;;;;0.30;0.30;;;;;;;0.54;80.93;102329.59;4937143;28;20368;-59
2023/02/09 03:55:59;;;;;;;0.30;0.30;;;;;;;0.50;82.24;102330.34;4928651;28;20394;-58
2023/02/09 03:58:24;;;;;;;0.35;0.35;;;;;;;0.45;81.33;102324.97;4951468;28;20027;-64
2023/02/09 04:00:50;;;;;;;0.30;0.30;;;;;;;0.57;81.34;102328.31;4946668;28;20755;-60
2023/02/09 04:03:15;;;;;;;0.30;0.30;;;;;;;0.63;81.33;102325.47;4938647;28;20047;-63
2023/02/09 04:05:41;;;;;;;0.52;0.52;;;;;;;0.48;81.31;102325.31;4940514;28;20027;-58
2023/02/09 04:08:06;;;;;;;0.82;0.80;;;;;;;0.38;81.81;102319.06;4941495;28;20423;-61
2023/02/09 04:10:32;;;;;;;0.30;0.30;;;;;;;0.40;82.22;102327.56;4944134;28;20454;-57
2023/02/09 04:12:57;;;;;;;0.32;0.32;;;;;;;0.57;81.31;102321.16;4928832;29;20031;-58
2023/02/09 04:15:23;;;;;;;0.25;0.25;;;;;;;0.58;80.86;102322.75;4938009;29;20059;-61
2023/02/09 04:17:48;;;;;;;0.55;0.55;;;;;;;0.27;82.04;102325.28;4942373;28;20127;-61
2023/02/09 04:20:13;;;;;;;0.50;0.50;;;;;;;0.22;82.02;102319.88;4937730;28;20047;-62
2023/02/09 04:22:39;;;;;;;0.60;0.60;;;;;;;0.36;82.89;102318.50;4926409;29;20039;-62
2023/02/09 04:25:05;;;;;;;0.20;0.20;;;;;;;0.19;82.40;102313.25;4914709;28;20602;-63
2023/02/09 04:27:30;;;;;;;0.20;0.20;;;;;;;0.33;82.98;102313.72;4926206;29;20582;-62
2023/02/09 04:29:56;;;;;;;0.22;0.22;;;;;;;0.45;81.86;102311.72;4940685;28;20039;-63
2023/02/09 04:32:21;;;;;;;0.40;0.40;;;;;;;0.48;82.14;102303.28;4949692;28;20518;-61
2023/02/09 04:34:47;;;;;;;0.68;0.68;;;;;;;0.61;81.03;102294.97;4947650;28;20499;-61
2023/02/09 04:37:12;;;;;;;0.88;0.88;;;;;;;0.39;81.79;102299.47;4946427;28;20028;-62
2023/02/09 04:39:38;;;;;;;0.20;0.20;;;;;;;0.51;81.71;102295.66;4950976;28;20051;-61
2023/02/09 04:42:03;;;;;;;0.20;0.20;;;;;;;0.31;81.54;102299.91;4951000;28;20099;-60
2023/02/09 04:44:29;;;;;;;0.30;0.30;;;;;;;0.06;82.43;102297.69;4947231;28;20038;-61
2023/02/09 04:46:54;;;;;;;0.60;0.60;;;;;;;0.16;82.44;102289.91;4944171;28;20035;-62
2023/02/09 04:49:20;;;;;;;0.73;0.73;;;;;;;0.30;82.46;102293.00;4933392;29;20557;-62
2023/02/09 04:51:45;;;;;;;2.33;1.13;;;;;;;0.20;82.11;102285.72;4965918;28;20054;-63
2023/02/09 04:54:11;;;;;;;0.30;0.30;;;;;;;0.40;82.38;102288.63;4936810;28;20032;-63
2023/02/09 04:56:36;;;;;;;0.32;0.32;;;;;;;0.52;80.80;102293.81;4932593;28;20367;-62
2023/02/09 05:01:45;;;;;;;0.90;0.75;;;;;;;0.68;80.08;102272.53;4932140;28;20505;-63
2023/02/09 05:04:11;;;;;;;0.82;0.82;;;;;;;0.36;80.35;102270.81;4944444;28;20070;-62
2023/02/09 05:06:36;;;;;;;0.95;0.85;;;;;;;0.30;81.09;102262.03;4945825;29;20054;-62
2023/02/09 05:09:02;;;;;;;0.38;0.38;;;;;;;0.27;81.23;102267.00;4946282;28;20601;-59
2023/02/09 05:11:27;;;;;;;0.30;0.30;;;;;;;0.34;81.09;102268.44;4944270;28;20043;-62
2023/02/09 05:13:54;;;;;;;0.30;0.30;;;;;;;0.44;80.71;102268.56;4946857;29;20039;-62
2023/02/09 05:16:20;;;;;;;0.45;0.45;;;;;;;0.42;81.26;102273.31;4932420;28;20495;-61
2023/02/09 05:18:45;;;;;;;0.50;0.50;;;;;;;0.49;80.95;102271.25;4943014;28;20098;-62
2023/02/09 05:21:13;;;;;;;0.30;0.30;;;;;;;0.55;81.10;102270.25;4949314;29;20394;-60
2023/02/09 05:23:38;;;;;;;0.30;0.30;;;;;;;0.61;80.17;102271.13;4943583;28;20023;-62
2023/02/09 05:26:04;;;;;;;0.20;0.20;;;;;;;0.71;79.29;102274.69;4947444;29;20032;-62
2023/02/09 05:28:29;;;;;;;16.27;1.15;;;;;;;0.64;79.99;102273.28;4947150;28;20501;-62
2023/02/09 05:30:55;;;;;;;0.52;0.45;;;;;;;0.48;80.05;102268.84;4934027;28;20036;-63
2023/02/09 05:33:22;;;;;;;0.30;0.30;;;;;;;0.49;80.00;102275.75;4940922;29;20106;-60
2023/02/09 05:35:49;;;;;;;0.63;0.63;;;;;;;0.36;81.03;102265.53;4934591;29;20496;-62
2023/02/09 05:38:15;;;;;;;0.38;0.38;;;;;;;0.23;80.52;102255.31;4950930;28;20042;-62
2023/02/09 05:40:40;;;;;;;0.43;0.43;;;;;;;0.17;81.05;102251.81;4933743;28;20040;-62
2023/02/09 05:43:06;;;;;;;0.63;0.63;;;;;;;0.18;81.56;102249.94;4938016;28;20110;-62
2023/02/09 05:45:31;;;;;;;0.35;0.35;;;;;;;0.41;80.81;102255.78;4944803;28;20154;-63
2023/02/09 05:47:56;;;;;;;0.35;0.35;;;;;;;0.58;79.54;102247.78;4936130;29;20035;-61
2023/02/09 05:50:22;;;;;;;0.30;0.30;;;;;;;0.42;80.62;102252.09;4940009;28;20071;-61
2023/02/09 05:52:52;;;;;;;0.30;0.30;;;;;;;0.30;80.08;102235.53;4935897;28;20038;-62
2023/02/09 05:55:18;;;;;;;0.47;0.47;;;;;;;0.24;80.53;102235.72;4934524;28;20032;-63
2023/02/09 05:57:43;;;;;;;0.75;0.75;;;;;;;0.37;79.87;102238.78;4937109;28;20586;-62
2023/02/09 06:00:10;;;;;;;0.20;0.20;;;;;;;0.35;80.45;102258.63;4955521;28;20067;-62
2023/02/09 06:02:38;;;;;;;0.30;0.30;;;;;;;0.33;80.73;102255.44;4929170;29;20105;-61
2023/02/09 06:05:04;;;;;;;0.55;0.55;;;;;;;0.47;80.24;102260.09;4943004;29;20095;-62
2023/02/09 06:07:29;;;;;;;0.20;0.20;;;;;;;0.39;80.70;102273.78;4953468;28;20031;-62
2023/02/09 06:09:55;;;;;;;0.38;0.38;;;;;;;0.48;80.28;102268.84;4938863;29;20038;-61
2023/02/09 06:12:20;;;;;;;1.70;0.90;;;;;;;0.49;80.37;102281.03;4947221;29;20142;-63
2023/02/09 06:14:45;;;;;;;0.25;0.25;;;;;;;0.58;79.77;102285.66;4946152;29;20039;-62
2023/02/09 06:17:11;;;;;;;0.45;0.45;;;;;;;0.56;79.94;102289.63;4946141;28;20086;-61
2023/02/09 06:19:36;;;;;;;0.30;0.30;;;;;;;0.59;79.67;102291.75;4944078;29;20086;-62
2023/02/09 06:22:02;;;;;;;0.75;0.70;;;;;;;0.73;79.31;102298.28;4918392;28;20046;-61
2023/02/09 06:24:27;;;;;;;0.40;0.40;;;;;;;0.57;78.84;102293.84;4931926;28;20031;-60
2023/02/09 06:26:55;;;;;;;0.20;0.20;;;;;;;0.51;79.03;102292.19;4932866;29;20054;-62
2023/02/09 06:29:20;;;;;;;1.17;0.50;;;;;;;0.50;79.46;102299.38;4921030;29;20465;-61
2023/02/09 06:31:46;;;;;;;0.38;0.38;;;;;;;0.44;79.64;102291.59;4941887;28;20063;-62
2023/02/09 06:34:11;;;;;;;0.38;0.38;;;;;;;0.25;80.40;102290.28;4940282;28;20410;-63
2023/02/09 06:36:37;;;;;;;0.47;0.47;;;;;;;0.28;80.75;102295.09;4945738;28;20062;-62
2023/02/09 06:39:07;;;;;;;0.57;0.57;;;;;;;0.35;80.23;102303.66;4948986;28;20122;-62
2023/02/09 06:41:33;;;;;;;0.55;0.55;;;;;;;0.43;80.04;102311.16;4939371;28;20397;-62
2023/02/09 06:43:58;;;;;;;0.52;0.52;;;;;;;0.46;79.66;102308.03;4939855;28;20131;-61
2023/02/09 06:46:23;;;;;;;1.17;1.08;;;;;;;0.44;79.32;102300.34;4942989;29;20446;-63
2023/02/09 06:48:49;;;;;;;0.40;0.40;;;;;;;0.47;79.85;102293.72;4940407;28;20107;-62
2023/02/09 06:51:15;;;;;;;0.28;0.28;;;;;;;0.50;79.53;102299.38;4946974;28;20086;-62
2023/02/09 06:53:42;;;;;;;0.25;0.25;;;;;;;0.59;79.65;102291.75;4943017;28;20035;-61
2023/02/09 06:56:08;;;;;;;1.17;1.10;;;;;;;0.74;78.38;102286.63;4935888;28;20073;-62
2023/02/09 06:58:35;;;;;;;0.52;0.52;;;;;;;0.54;79.00;102292.50;4914340;29;20057;-62
2023/02/09 07:01:06;;;;;;;0.45;0.45;;;;;;;0.39;79.44;102288.84;4943217;28;20067;-62
2023/02/09 07:03:32;;;;;;;1.50;1.03;;;;;;;0.59;79.15;102275.88;4938912;28;20028;-62
2023/02/09 07:06:09;;;;;;;0.63;0.63;;;;;;;0.64;78.41;102274.06;4937915;28;20083;-62
2023/02/09 07:08:35;;;;;;;0.60;0.60;;;;;;;0.68;78.27;102275.19;4935911;29;20031;-62
2023/02/09 07:11:05;;;;;;;0.30;0.30;;;;;;;0.64;78.56;102270.63;4948491;28;20041;-63
2023/02/09 07:13:31;;;;;;;0.40;0.40;;;;;;;0.63;78.50;102284.91;4942214;28;20070;-61
2023/02/09 07:15:58;;;;;;;0.20;0.20;;;;;;;0.68;77.72;102266.41;4927127;29;20063;-62
2023/02/09 07:18:24;;;;;;;0.40;0.40;;;;;;;0.69;78.06;102282.09;4932005;28;20062;-62
2023/02/09 07:20:58;;;;;;;0.93;0.85;;;;;;;0.73;77.85;102279.75;4938363;28;20039;-62
2023/02/09 07:23:24;;;;;;;0.28;0.28;;;;;;;0.76;77.50;102273.94;4935216;28;20044;-61
2023/02/09 07:26:10;;;;;;;0.40;0.40;;;;;;;0.73;77.62;102271.78;4947567;28;20095;-62
2023/02/09 07:28:36;;;;;;;0.30;0.30;;;;;;;0.78;77.31;102266.53;4892369;29;20048;-62
2023/02/09 07:31:05;;;;;;;0.40;0.40;;;;;;;0.81;76.48;102263.41;4887164;29;20161;-61
2023/02/09 07:33:31;;;;;;;0.30;0.30;;;;;;;0.78;76.49;102262.03;4886659;29;20076;-62
2023/02/09 07:35:56;;;;;;;0.22;0.22;;;;;;;0.86;76.81;102272.19;4871396;29;20044;-62
2023/02/09 07:38:22;;;;;;;0.60;0.60;;;;;;;0.96;76.72;102281.28;4876795;29;20183;-60
2023/02/09 07:40:47;;;;;;;0.30;0.30;;;;;;;0.85;75.71;102285.72;4890821;29;20052;-62
2023/02/09 07:43:13;;;;;;;0.40;0.40;;;;;;;0.92;76.37;102283.66;4891231;29;20042;-61
2023/02/09 07:45:39;;;;;;;0.30;0.30;;;;;;;1.12;75.46;102275.09;4876724;29;20096;-61
2023/02/09 07:48:05;;;;;;;0.30;0.30;;;;;;;1.08;74.97;102284.59;4891921;29;20034;-59
2023/02/09 07:50:31;;;;;;;0.38;0.38;;;;;;;1.08;74.52;102288.06;4876571;29;20037;-61
2023/02/09 07:52:57;;;;;;;0.63;0.63;;;;;;;1.18;75.01;102298.75;4876972;29;20036;-61
2023/02/09 07:55:23;;;;;;;0.63;0.63;;;;;;;1.20;74.59;102298.53;4887455;29;20044;-61
2023/02/09 07:57:49;;;;;;;0.25;0.25;;;;;;;1.33;74.50;102298.09;4866359;29;20035;-62
2023/02/09 08:00:16;;;;;;;0.50;0.50;;;;;;;1.37;74.39;102300.00;4886179;29;20435;-62
2023/02/09 08:02:42;;;;;;;0.93;0.93;;;;;;;1.51;73.69;102297.72;4888048;29;20127;-60
2023/02/09 08:05:15;;;;;;;0.30;0.30;;;;;;;1.33;73.39;102304.22;4888816;28;20122;-60
2023/02/09 08:07:41;;;;;;;0.30;0.30;;;;;;;1.40;73.98;102310.09;4940946;28;20066;-62
2023/02/09 08:10:07;;;;;;;1.85;0.68;;;;;;;1.30;73.72;102302.03;4908354;29;20035;-62
2023/02/09 08:15:20;;;;;;;0.20;0.20;;;;;;;1.44;73.99;102313.03;4945260;28;20106;-62
2023/02/09 08:17:47;;;;;;;0.30;0.30;;;;;;;1.51;73.30;102322.41;4946120;28;20061;-62
2023/02/09 08:20:17;;;;;;;0.93;0.93;;;;;;;1.39;72.86;102313.81;4931572;28;20398;-62
2023/02/09 08:22:47;;;;;;;0.40;0.38;;;;;;;1.63;72.74;102298.34;4940342;28;20043;-62
2023/02/09 08:25:15;;;;;;;0.52;0.52;;;;;;;1.51;72.06;102295.84;4934699;29;20156;-61
2023/02/09 08:27:42;;;;;;;0.35;0.35;;;;;;;1.63;72.30;102314.25;4931323;29;20086;-61
2023/02/09 08:30:09;;;;;;;0.30;0.30;;;;;;;1.64;72.66;102313.22;4956300;28;20039;-62
2023/02/09 08:32:35;;;;;;;0.30;0.30;;;;;;;1.87;71.49;102309.41;4934778;28;20031;-61
2023/02/09 08:35:00;;;;;;;0.30;0.30;;;;;;;2.10;70.18;102314.31;4919100;29;20180;-61
2023/02/09 08:37:26;;;;;;;0.30;0.30;;;;;;;2.10;69.60;102309.81;4935182;28;20084;-62
2023/02/09 08:39:51;;;;;;;0.40;0.40;;;;;;;2.20;68.36;102315.19;4942263;29;20043;-62
2023/02/09 08:42:17;;;;;;;0.50;0.50;;;;;;;2.14;68.93;102302.94;4917780;29;20042;-62
2023/02/09 08:44:42;;;;;;;0.35;0.35;;;;;;;2.22;68.10;102305.13;4939514;28;20027;-60
2023/02/09 08:47:08;;;;;;;0.30;0.30;;;;;;;2.01;67.53;102290.13;4944497;29;20128;-58
2023/02/09 08:49:34;;;;;;;0.32;0.32;;;;;;;2.33;67.85;102298.78;4950331;29;20050;-59
2023/02/09 08:52:00;;;;;;;0.40;0.40;;;;;;;2.12;66.46;102296.28;4937698;28;20039;-60
2023/02/09 08:54:26;;;;;;;0.30;0.30;;;;;;;2.34;66.56;102295.06;4950262;29;20383;-60
2023/02/09 08:56:51;;;;;;;1.88;0.63;;;;;;;2.47;65.81;102293.78;4947292;28;20182;-60
2023/02/09 08:59:17;;;;;;;0.40;0.40;;;;;;;2.66;64.88;102297.59;4949729;28;20534;-59
2023/02/09 09:01:42;;;;;;;0.52;0.52;;;;;;;2.50;64.73;102287.94;4940107;28;20486;-61
2023/02/09 09:04:08;;;;;;;0.30;0.30;;;;;;;2.91;64.21;102289.69;4939467;28;20043;-59
2023/02/09 09:06:34;;;;;;;0.20;0.20;;;;;;;3.20;63.18;102296.13;4938619;28;20039;-62
2023/02/09 09:08:59;;;;;;;0.40;0.40;;;;;;;3.38;62.91;102297.47;4949821;28;20035;-57
2023/02/09 09:11:25;;;;;;;0.50;0.50;;;;;;;3.31;62.72;102284.41;4949452;28;20031;-58
2023/02/09 09:13:50;;;;;;;0.50;0.50;;;;;;;3.53;60.90;102292.13;4942420;28;20119;-58
2023/02/09 09:16:21;;;;;;;0.30;0.30;;;;;;;3.42;61.78;102288.69;4943059;28;20050;-57
2023/02/09 09:18:47;;;;;;;0.30;0.30;;;;;;;3.73;60.97;102289.47;4942776;29;20039;-61
2023/02/09 09:21:14;;;;;;;0.45;0.43;;;;;;;3.76;59.94;102285.44;4950722;29;20046;-61
2023/02/09 09:23:40;;;;;;;0.55;0.55;;;;;;;3.76;60.15;102285.44;4943302;28;20471;-58
2023/02/09 09:26:06;;;;;;;0.50;0.50;;;;;;;3.84;59.90;102282.25;4951870;28;20035;-58
2023/02/09 09:28:31;;;;;;;0.30;0.30;;;;;;;3.99;58.97;102274.25;4948867;28;20078;-61
2023/02/09 09:31:00;;;;;;;0.55;0.55;;;;;;;3.92;59.25;102273.72;4946760;28;20035;-61
2023/02/09 09:33:26;;;;;;;0.40;0.40;;;;;;;4.15;59.04;102273.91;4931035;29;20027;-57
2023/02/09 09:35:51;;;;;;;0.32;0.32;;;;;;;4.14;58.57;102282.19;4936875;28;20438;-58
2023/02/09 09:38:17;;;;;;;0.20;0.20;;;;;;;4.43;57.25;102262.59;4942487;28;20031;-62
2023/02/09 09:40:44;;;;;;;0.30;0.30;;;;;;;4.36;57.49;102246.13;4941205;28;20047;-57
2023/02/09 09:43:22;;;;;;;0.22;0.22;;;;;;;4.45;56.90;102262.34;4946489;29;20479;-60
2023/02/09 09:45:49;;;;;;;0.57;0.55;;;;;;;4.43;56.05;102267.16;4928545;28;20035;-61
2023/02/09 09:48:23;;;;;;;0.30;0.30;;;;;;;4.35;56.73;102236.53;4942871;28;20019;-60
2023/02/09 09:50:55;;;;;;;0.30;0.30;;;;;;;4.41;56.30;102240.75;4939706;28;20131;-61
2023/02/09 09:53:24;;;;;;;0.50;0.50;;;;;;;4.48;56.13;102240.47;4938570;29;20051;-59
2023/02/09 09:55:55;;;;;;;0.30;0.30;;;;;;;4.46;57.33;102226.59;4951656;28;20042;-61
2023/02/09 09:58:21;;;;;;;0.22;0.22;;;;;;;4.62;56.55;102238.00;4929704;29;20039;-62
2023/02/09 10:00:48;;;;;;;0.20;0.20;;;;;;;4.54;56.23;102240.16;4927532;29;20558;-61
2023/02/09 10:03:16;;;;;;;0.50;0.50;;;;;;;4.64;56.44;102247.31;4954369;28;20372;-61
2023/02/09 10:05:43;;;;;;;0.20;0.20;;;;;;;4.47;56.46;102238.88;4939768;29;20035;-63
2023/02/09 10:08:08;;;;;;;0.55;0.55;;;;;;;4.63;56.77;102242.25;4940482;28;20024;-60
2023/02/09 10:10:40;;;;;;;0.40;0.40;;;;;;;4.51;56.01;102235.38;4940496;28;20082;-60
2023/02/09 10:13:47;;;;;;;0.20;0.20;;;;;;;4.35;56.82;102247.19;4940238;28;20543;-56
2023/02/09 10:16:24;;;;;;;0.75;0.75;;;;;;;4.46;57.64;102253.28;4912434;29;20135;-63
2023/02/09 10:18:51;;;;;;;0.30;0.30;;;;;;;4.67;56.76;102240.63;4937654;28;20041;-54
2023/02/09 10:21:18;;;;;;;0.95;0.60;;;;;;;4.90;57.04;102250.59;4937376;28;20118;-57
2023/02/09 10:23:45;;;;;;;0.28;0.28;;;;;;;4.95;56.49;102248.72;4928092;29;20082;-57
2023/02/09 10:26:19;;;;;;;0.20;0.20;;;;;;;5.05;55.93;102255.88;4939555;29;20035;-63
2023/02/09 10:28:48;;;;;;;0.30;0.30;;;;;;;5.17;54.73;102269.66;4931234;29;20491;-60
2023/02/09 10:31:25;;;;;;;0.40;0.40;;;;;;;4.91;55.76;102244.22;4934259;28;20087;-60
2023/02/09 10:34:00;;;;;;;0.38;0.38;;;;;;;4.88;55.72;102229.53;4934403;28;20043;-58
2023/02/09 10:36:34;;;;;;;0.40;0.40;;;;;;;5.06;54.69;102228.88;4934183;28;20087;-57
2023/02/09 10:39:31;;;;;;;0.70;0.70;;;;;;;4.70;55.77;102227.53;4934932;29;20050;-59
2023/02/09 10:42:30;;;;;;;0.45;0.45;;;;;;;4.57;55.81;102212.94;4941938;28;20514;-58
2023/02/09 10:45:03;;;;;;;0.25;0.25;;;;;;;4.80;55.80;102202.66;4943150;29;20498;-55
2023/02/09 10:47:30;;;;;;;0.20;0.20;;;;;;;4.88;55.09;102202.84;4939715;28;20556;-61
2023/02/09 10:50:07;;;;;;;0.20;0.20;;;;;;;5.06;55.62;102212.06;4937510;28;20035;-61
2023/02/09 10:52:35;;;;;;;0.30;0.30;;;;;;;5.28;55.47;102245.25;4937635;29;20408;-60
2023/02/09 10:55:26;;;;;;;0.30;0.30;;;;;;;5.19;55.46;102243.47;4930076;29;20034;-60
2023/02/09 10:58:03;;;;;;;0.98;0.98;;;;;;;5.44;54.99;102230.69;4936720;28;20054;-63
2023/02/09 11:00:36;;;;;;;0.10;0.10;;;;;;;5.71;53.40;102226.72;4936409;29;20063;-55
2023/02/09 11:03:01;;;;;;;0.20;0.20;;;;;;;5.72;53.50;102205.06;4937236;29;20078;-55
2023/02/09 11:05:33;;;;;;;0.30;0.30;;;;;;;5.63;53.48;102209.44;4939239;28;20043;-63
2023/02/09 11:08:10;;;;;;;;;;;;;;;5.65;53.36;102217.16;4937573;28;20493;-64
2023/02/09 11:10:42;;;;;;;1.15;0.55;;;;;;;5.73;53.81;102224.56;4937156;28;20259;-56
2023/02/09 11:13:20;;;;;;;0.40;0.40;;;;;;;5.96;52.58;102229.16;4943114;28;20118;-61
2023/02/09 11:16:19;;;;;;;0.55;0.55;;;;;;;5.90;52.73;102238.31;4934123;28;20035;-62
2023/02/09 11:18:55;;;;;;;0.47;0.47;;;;;;;5.97;53.07;102238.75;4936780;28;20061;-64
2023/02/09 11:21:37;;;;;;;0.95;0.93;;;;;;;5.80;52.94;102235.72;4948211;28;20055;-60
2023/02/09 11:24:19;;;;;;;0.30;0.30;;;;;;;5.60;52.95;102236.69;4939205;28;20047;-59
2023/02/09 11:26:59;;;;;;;0.30;0.30;;;;;;;5.72;52.98;102239.00;4925820;29;20518;-60
2023/02/09 11:29:39;;;;;;;0.30;0.30;;;;;;;5.89;53.17;102237.50;4947301;28;20073;-59
2023/02/09 11:32:10;;;;;;;1.40;1.30;;;;;;;5.64;53.76;102232.38;4936518;29;20396;-62
2023/02/09 11:35:07;;;;;;;0.40;0.40;;;;;;;5.86;53.29;102245.31;4936311;28;20039;-62
2023/02/09 11:37:46;;;;;;;0.20;0.20;;;;;;;6.00;53.48;102249.69;4937257;28;20027;-60
2023/02/09 11:40:14;;;;;;;0.68;0.68;;;;;;;5.90;52.95;102244.47;4942341;29;20114;-60
2023/02/09 11:43:02;;;;;;;0.30;0.30;;;;;;;5.90;53.46;102235.63;4935883;28;20050;-57
2023/02/09 11:45:45;;;;;;;0.20;0.20;;;;;;;6.13;53.62;102234.84;4900599;28;1103903;-62
2023/02/09 11:48:30;;;;;;;0.40;0.40;;;;;;;5.95;53.52;102225.69;4949945;28;20486;-60
2023/02/09 11:51:08;;;;;;;0.95;0.95;;;;;;;5.91;53.97;102231.88;4935786;28;20652;-58
2023/02/09 11:53:33;;;;;;;0.35;0.35;;;;;;;6.10;53.21;102227.38;4940437;28;20039;-61
2023/02/09 11:56:02;;;;;;;0.20;0.20;;;;;;;6.12;53.80;102222.53;4929054;28;20043;-57
2023/02/09 11:58:40;;;;;;;0.30;0.30;;;;;;;6.15;53.41;102236.16;4942376;28;20031;-58
2023/02/09 12:01:12;;;;;;;0.30;0.30;;;;;;;6.20;53.71;102235.28;4952609;28;20486;-57